Time;durP1;ratioP1;P1;durP2;ratioP2;P2;SDS_P1;SDS_P2;PMS_P1;PMS_P2;Temp;Humidity;BMP_temperature;BMP_pressure;BME280_temperature;BME280_humidity;BME280_pressure;Samples;Min_cycle;Max_cycle;Signal;HPM_P1;HPM_P2
2021/12/24 00:00:11;;;;;;;48.40;35.47;;;7.40;99.90;;;;;;5059670;28;20458;-61
2021/12/24 00:02:40;;;;;;;49.00;32.23;;;7.40;99.90;;;;;;5059327;28;20902;-61
2021/12/24 00:05:09;;;;;;;46.97;32.73;;;7.50;99.90;;;;;;5061666;28;20962;-61
2021/12/24 00:07:36;;;;;;;44.87;32.43;;;7.50;99.90;;;;;;5060018;28;20758;-62
2021/12/24 00:10:05;;;;;;;47.07;32.10;;;7.40;99.90;;;;;;5059068;28;20458;-61
2021/12/24 00:12:35;;;;;;;49.00;34.53;;;7.50;99.90;;;;;;5056829;28;20458;-61
2021/12/24 00:15:13;;;;;;;40.10;33.37;;;7.50;99.90;;;;;;5062911;28;20459;-61
2021/12/24 00:17:40;;;;;;;40.57;28.80;;;7.50;99.90;;;;;;5058760;28;20461;-61
2021/12/24 00:20:34;;;;;;;39.00;27.40;;;7.50;99.90;;;;;;5062047;28;20465;-62
2021/12/24 00:36:48;;;;;;;29.80;22.30;;;7.60;99.90;;;;;;5059827;28;20564;-61
2021/12/24 00:39:17;;;;;;;35.60;24.00;;;7.60;99.90;;;;;;5062359;28;20886;-61
2021/12/24 00:41:45;;;;;;;34.60;24.23;;;7.60;99.90;;;;;;5060426;28;20459;-61
2021/12/24 00:44:12;;;;;;;30.67;23.17;;;7.60;99.90;;;;;;5060258;28;20494;-61
2021/12/24 00:46:39;;;;;;;31.60;24.33;;;7.60;99.90;;;;;;5059221;28;20470;-61
2021/12/24 00:49:06;;;;;;;30.23;20.00;;;7.60;99.90;;;;;;5061828;28;20909;-61
2021/12/24 00:51:54;;;;;;;25.23;19.10;;;7.60;99.90;;;;;;5060297;28;20458;-61
2021/12/24 00:57:06;;;;;;;27.80;20.07;;;7.60;99.90;;;;;;5073592;28;20449;-61
2021/12/24 00:59:33;;;;;;;24.27;19.43;;;7.60;99.90;;;;;;5081148;28;20461;-61
2021/12/24 01:02:03;;;;;;;27.10;20.63;;;7.60;99.90;;;;;;5080662;28;20507;-61
2021/12/24 01:04:31;;;;;;;27.90;20.30;;;7.70;99.90;;;;;;5080022;28;20489;-62
2021/12/24 01:06:58;;;;;;;27.77;18.80;;;7.60;99.90;;;;;;5068472;28;20539;-61
2021/12/24 01:09:26;;;;;;;21.93;17.80;;;7.70;99.90;;;;;;5059608;28;20466;-62
2021/12/24 01:11:53;;;;;;;24.60;19.10;;;7.70;99.90;;;;;;5057967;28;20466;-62
2021/12/24 01:14:24;;;;;;;23.37;17.00;;;7.60;99.90;;;;;;5058883;28;20941;-62
2021/12/24 01:17:01;;;;;;;23.53;17.30;;;7.60;99.90;;;;;;5064106;28;20467;-62
2021/12/24 01:19:28;;;;;;;24.57;18.33;;;7.60;99.90;;;;;;5078932;28;20518;-61
2021/12/24 01:22:26;;;;;;;23.00;17.57;;;7.70;99.90;;;;;;5067071;28;20488;-62
2021/12/24 01:25:00;;;;;;;24.43;18.20;;;7.70;99.90;;;;;;5058378;28;20768;-62
2021/12/24 01:27:49;;;;;;;25.60;19.20;;;7.70;99.90;;;;;;5064600;28;20845;-62
2021/12/24 01:37:51;;;;;;;25.33;18.90;;;7.60;99.90;;;;;;5078467;28;20523;-62
2021/12/24 01:38:51;;;;;;;26.33;19.10;;;7.70;99.90;;;;;;5065309;28;20575;-61
2021/12/24 01:42:40;;;;;;;27.67;20.53;;;7.70;99.90;;;;;;5058084;28;20462;-61
2021/12/24 01:44:07;;;;;;;27.80;21.87;;;7.70;99.90;;;;;;5038137;28;20586;-61
2021/12/24 01:46:34;;;;;;;28.40;21.73;;;7.60;99.90;;;;;;5038456;28;20469;-61
2021/12/24 01:49:01;;;;;;;26.13;20.30;;;7.70;99.90;;;;;;5038375;28;20521;-61
2021/12/24 01:51:29;;;;;;;31.83;22.77;;;7.70;99.90;;;;;;5038087;28;20533;-61
2021/12/24 01:53:56;;;;;;;31.30;22.90;;;7.70;99.90;;;;;;5071967;28;20461;-61
2021/12/24 01:56:28;;;;;;;37.33;25.70;;;7.70;99.90;;;;;;5077295;28;20461;-61
2021/12/24 01:58:55;;;;;;;33.60;24.53;;;7.70;99.90;;;;;;5076386;28;20465;-61
2021/12/24 02:01:27;;;;;;;32.50;25.47;;;7.70;99.90;;;;;;5077542;28;20457;-61
2021/12/24 02:03:56;;;;;;;33.30;25.60;;;7.70;99.90;;;;;;5065389;28;20502;-61
2021/12/24 02:06:26;;;;;;;36.80;26.20;;;7.70;99.90;;;;;;5057518;28;20489;-62
2021/12/24 02:08:53;;;;;;;38.30;28.77;;;7.70;99.90;;;;;;5073032;28;20828;-61
2021/12/24 02:11:20;;;;;;;37.20;27.00;;;7.80;99.90;;;;;;5052220;28;20470;-62
2021/12/24 02:13:49;;;;;;;38.17;27.07;;;7.70;99.90;;;;;;5046312;28;20914;-61
2021/12/24 02:16:24;;;;;;;34.00;25.80;;;7.70;99.90;;;;;;5057153;28;20462;-62
2021/12/24 02:29:51;;;;;;;28.37;23.00;;;7.70;99.90;;;;;;5059918;28;20499;-61
2021/12/24 02:32:18;;;;;;;32.33;26.20;;;7.70;99.90;;;;;;5077193;28;20461;-61
2021/12/24 02:34:45;;;;;;;36.13;25.87;;;7.70;99.90;;;;;;5075892;28;20462;-61
2021/12/24 02:37:14;;;;;;;34.30;26.67;;;7.80;99.90;;;;;;5077524;28;20511;-61
2021/12/24 02:39:42;;;;;;;34.37;26.90;;;7.80;99.90;;;;;;5077500;28;20466;-61
2021/12/24 02:42:14;;;;;;;35.40;27.60;;;7.80;99.90;;;;;;5057744;28;20483;-60
2021/12/24 02:44:41;;;;;;;42.53;30.80;;;7.80;99.90;;;;;;5040908;28;20489;-61
2021/12/24 02:47:25;;;;;;;40.50;29.93;;;7.80;99.90;;;;;;5057331;28;20458;-61
2021/12/24 02:55:26;;;;;;;48.80;32.40;;;7.80;99.90;;;;;;5075221;28;20445;-61
2021/12/24 02:57:53;;;;;;;47.63;33.70;;;7.80;99.90;;;;;;5077356;28;20480;-61
2021/12/24 03:00:25;;;;;;;45.67;31.17;;;7.80;99.90;;;;;;5077244;28;20461;-61
2021/12/24 03:02:53;;;;;;;45.10;30.23;;;7.80;99.90;;;;;;5063912;28;20492;-62
2021/12/24 03:05:22;;;;;;;39.93;30.27;;;7.80;99.90;;;;;;5061615;28;20502;-61
2021/12/24 03:07:51;;;;;;;45.20;29.60;;;7.90;99.90;;;;;;5081212;28;20476;-61
2021/12/24 03:10:20;;;;;;;37.30;27.90;;;7.90;99.90;;;;;;5080828;28;20894;-61
2021/12/24 03:12:51;;;;;;;41.40;30.60;;;7.80;99.90;;;;;;5068056;28;20472;-61
2021/12/24 03:15:19;;;;;;;39.03;27.37;;;7.80;99.90;;;;;;5062216;28;20462;-62
2021/12/24 03:17:51;;;;;;;39.67;26.70;;;7.80;99.90;;;;;;5061710;28;20842;-61
2021/12/24 03:20:18;;;;;;;42.80;26.50;;;7.90;99.90;;;;;;5061300;28;20472;-61
2021/12/24 03:22:51;;;;;;;38.17;27.30;;;7.80;99.90;;;;;;5066381;28;20550;-62
2021/12/24 03:25:19;;;;;;;32.40;24.67;;;7.80;99.90;;;;;;5080664;28;20495;-62
2021/12/24 03:27:47;;;;;;;39.17;27.80;;;7.90;99.90;;;;;;5079082;28;20816;-62
2021/12/24 03:30:14;;;;;;;39.97;28.50;;;7.90;99.90;;;;;;5080975;28;20518;-60
2021/12/24 03:32:41;;;;;;;35.27;26.83;;;7.90;99.90;;;;;;5076162;28;20884;-60
2021/12/24 03:35:09;;;;;;;36.00;26.47;;;7.90;99.90;;;;;;5060843;28;20509;-62
2021/12/24 03:37:36;;;;;;;38.13;27.00;;;7.90;99.90;;;;;;5060999;28;20462;-62
2021/12/24 03:40:05;;;;;;;36.83;26.70;;;7.90;99.90;;;;;;5060488;28;20515;-62
2021/12/24 03:42:37;;;;;;;29.27;25.83;;;7.90;99.90;;;;;;5059826;28;20440;-60
2021/12/24 03:45:19;;;;;;;33.50;24.33;;;7.90;99.90;;;;;;5079380;28;20489;-61
2021/12/24 03:47:52;;;;;;;31.67;24.97;;;7.90;99.90;;;;;;5080462;28;20565;-62
2021/12/24 03:50:19;;;;;;;31.20;24.50;;;7.90;99.90;;;;;;5078926;28;20886;-62
2021/12/24 03:53:05;;;;;;;32.40;25.90;;;7.90;99.90;;;;;;5080237;28;20901;-62
2021/12/24 03:55:32;;;;;;;37.47;27.13;;;7.90;99.90;;;;;;5060632;28;20500;-62
2021/12/24 03:58:00;;;;;;;35.27;26.50;;;7.90;99.90;;;;;;5060169;28;20454;-62
2021/12/24 04:00:30;;;;;;;38.20;27.93;;;7.90;99.90;;;;;;5059746;28;20461;-62
2021/12/24 04:02:59;;;;;;;39.03;27.23;;;7.90;99.90;;;;;;5059900;28;20461;-62
2021/12/24 04:05:26;;;;;;;34.70;27.43;;;7.90;99.90;;;;;;5071941;28;20610;-61
2021/12/24 04:07:53;;;;;;;34.23;27.90;;;7.90;99.90;;;;;;5080188;28;20502;-61
2021/12/24 04:10:29;;;;;;;35.30;28.37;;;7.90;99.90;;;;;;5078130;28;20469;-60
2021/12/24 04:12:57;;;;;;;37.57;29.10;;;7.90;99.90;;;;;;5060366;28;20470;-61
2021/12/24 04:15:25;;;;;;;35.33;28.40;;;7.90;99.90;;;;;;5069480;28;20465;-62
2021/12/24 04:17:52;;;;;;;39.47;30.80;;;7.90;99.90;;;;;;5080070;28;20470;-62
2021/12/24 04:25:48;;;;;;;32.13;27.70;;;7.90;99.90;;;;;;5068642;28;20484;-62
2021/12/24 04:28:15;;;;;;;33.27;26.67;;;7.90;99.90;;;;;;5059361;28;20531;-62
2021/12/24 04:30:51;;;;;;;34.70;27.23;;;7.90;99.90;;;;;;5073090;28;20514;-63
2021/12/24 04:33:22;;;;;;;36.17;25.87;;;7.90;99.90;;;;;;5079583;28;20501;-62
2021/12/24 04:35:59;;;;;;;42.00;28.60;;;7.90;99.90;;;;;;5072554;28;20462;-62
2021/12/24 04:38:43;;;;;;;40.40;29.53;;;7.90;99.90;;;;;;5059218;28;20468;-62
2021/12/24 04:52:25;;;;;;;42.37;30.53;;;7.90;99.90;;;;;;5078210;28;20464;-58
2021/12/24 05:03:28;;;;;;;45.13;29.67;;;7.90;99.90;;;;;;5058634;28;20469;-61
2021/12/24 05:06:07;;;;;;;48.27;32.97;;;7.90;99.90;;;;;;5058321;28;20509;-60
2021/12/24 05:08:41;;;;;;;45.37;31.30;;;7.90;99.90;;;;;;5075703;28;20462;-61
2021/12/24 05:11:10;;;;;;;40.77;29.17;;;7.90;99.90;;;;;;5074798;28;20469;-61
2021/12/24 05:13:39;;;;;;;51.13;31.87;;;7.90;99.90;;;;;;5058832;28;20466;-62
2021/12/24 05:16:17;;;;;;;45.97;30.87;;;7.90;99.90;;;;;;5057932;28;20458;-61
2021/12/24 05:19:06;;;;;;;45.70;30.60;;;7.90;99.90;;;;;;5072323;28;20465;-62
2021/12/24 05:21:36;;;;;;;47.13;30.70;;;7.90;99.90;;;;;;5078513;28;20596;-62
2021/12/24 05:24:05;;;;;;;44.87;30.00;;;7.90;99.90;;;;;;5078343;28;20465;-62
2021/12/24 05:26:33;;;;;;;44.23;30.60;;;7.90;99.90;;;;;;5078238;28;20539;-62
2021/12/24 05:29:01;;;;;;;43.80;30.83;;;7.90;99.90;;;;;;5064283;28;20462;-62
2021/12/24 05:31:29;;;;;;;47.30;32.03;;;7.90;99.90;;;;;;5058683;28;20895;-61
2021/12/24 05:33:58;;;;;;;47.50;29.37;;;7.90;99.90;;;;;;5058056;28;20470;-60
2021/12/24 05:36:25;;;;;;;39.60;28.00;;;7.90;99.90;;;;;;5058273;28;20532;-62
2021/12/24 05:38:56;;;;;;;40.00;28.00;;;7.90;99.90;;;;;;5065491;28;20470;-62
2021/12/24 05:41:23;;;;;;;38.03;28.13;;;7.90;99.90;;;;;;5078179;28;20461;-63
2021/12/24 05:43:51;;;;;;;43.03;27.50;;;7.90;99.90;;;;;;5077646;28;20555;-63
2021/12/24 05:46:19;;;;;;;39.97;28.00;;;7.90;99.90;;;;;;5077669;28;20550;-62
2021/12/24 05:48:46;;;;;;;38.93;28.17;;;7.90;99.90;;;;;;5073758;28;20508;-62
2021/12/24 05:51:16;;;;;;;42.13;28.00;;;7.90;99.90;;;;;;5057822;28;20746;-62
2021/12/24 05:53:43;;;;;;;40.70;25.73;;;7.90;99.90;;;;;;5057982;28;20474;-62
2021/12/24 05:56:12;;;;;;;40.53;27.70;;;7.90;99.90;;;;;;5057196;28;20462;-61
2021/12/24 05:58:39;;;;;;;46.90;30.47;;;7.90;99.90;;;;;;5057500;28;20466;-60
2021/12/24 06:01:06;;;;;;;46.80;32.30;;;7.90;99.90;;;;;;5076113;28;20473;-61
2021/12/24 06:03:34;;;;;;;43.17;30.90;;;7.90;99.90;;;;;;5077747;28;20514;-60
2021/12/24 06:06:01;;;;;;;46.50;29.83;;;7.90;99.90;;;;;;5077206;28;20563;-60
2021/12/24 06:08:29;;;;;;;42.43;30.13;;;7.90;99.90;;;;;;5077705;28;20918;-61
2021/12/24 06:10:56;;;;;;;46.10;31.80;;;7.90;99.90;;;;;;5060537;28;20448;-60
2021/12/24 06:13:25;;;;;;;44.37;30.53;;;7.90;99.90;;;;;;5037663;28;20467;-62
2021/12/24 06:15:52;;;;;;;54.53;31.43;;;7.90;99.90;;;;;;5056605;28;20462;-62
2021/12/24 06:18:24;;;;;;;50.27;31.47;;;7.90;99.90;;;;;;5057277;28;20561;-60
2021/12/24 06:20:51;;;;;;;48.17;31.10;;;8.00;99.90;;;;;;5065797;28;20493;-62
2021/12/24 06:23:20;;;;;;;54.37;28.90;;;7.90;99.90;;;;;;5077344;28;20461;-62
2021/12/24 06:25:50;;;;;;;38.27;29.10;;;7.90;99.90;;;;;;5077221;28;20493;-62
2021/12/24 06:28:17;;;;;;;45.33;30.10;;;7.90;99.90;;;;;;5077126;28;20808;-62
2021/12/24 06:30:44;;;;;;;44.20;29.70;;;7.90;99.90;;;;;;5072146;28;20459;-62
2021/12/24 06:33:12;;;;;;;41.53;28.30;;;8.00;99.90;;;;;;5057294;28;20519;-62
2021/12/24 06:35:39;;;;;;;43.47;27.90;;;7.90;99.90;;;;;;5056498;28;20462;-62
2021/12/24 06:38:06;;;;;;;43.67;28.00;;;7.90;99.90;;;;;;5057284;28;20512;-61
2021/12/24 06:40:34;;;;;;;42.10;29.07;;;7.90;99.90;;;;;;5056585;28;20519;-62
2021/12/24 06:43:04;;;;;;;46.77;29.70;;;8.00;99.90;;;;;;5075966;28;20510;-60
2021/12/24 06:45:34;;;;;;;49.63;29.30;;;7.90;99.90;;;;;;5072278;28;20486;-61
2021/12/24 06:48:04;;;;;;;45.37;29.40;;;8.00;99.90;;;;;;5056878;28;20536;-61
2021/12/24 06:50:31;;;;;;;50.20;31.63;;;8.00;99.90;;;;;;5056026;28;20466;-60
2021/12/24 06:52:58;;;;;;;43.90;30.07;;;8.00;99.90;;;;;;5071542;28;20499;-61
2021/12/24 06:55:26;;;;;;;52.40;29.93;;;8.00;99.90;;;;;;5076941;28;20463;-62
2021/12/24 06:57:53;;;;;;;45.17;30.40;;;8.00;99.90;;;;;;5076791;28;20464;-62
2021/12/24 07:00:22;;;;;;;47.17;28.87;;;7.90;99.90;;;;;;5060026;28;20474;-62
2021/12/24 07:02:53;;;;;;;44.20;28.50;;;7.90;99.90;;;;;;5066670;28;20585;-62
2021/12/24 07:05:25;;;;;;;49.90;31.73;;;8.00;99.90;;;;;;5076574;28;20497;-63
2021/12/24 07:07:53;;;;;;;45.00;30.10;;;8.00;99.90;;;;;;5060410;28;20462;-61
2021/12/24 07:10:21;;;;;;;54.40;30.37;;;7.90;99.90;;;;;;5056572;28;20520;-62
2021/12/24 07:12:48;;;;;;;43.47;30.20;;;7.90;99.90;;;;;;5044965;28;20466;-61
2021/12/24 07:15:18;;;;;;;46.03;28.67;;;7.90;99.90;;;;;;5056922;28;20462;-61
2021/12/24 07:17:46;;;;;;;47.93;29.27;;;8.00;99.90;;;;;;5056579;28;20462;-62
2021/12/24 07:20:14;;;;;;;53.53;30.03;;;8.00;99.90;;;;;;5053917;28;20462;-62
2021/12/24 07:22:41;;;;;;;44.50;30.07;;;8.00;99.90;;;;;;5047751;28;20461;-62
2021/12/24 07:25:11;;;;;;;42.50;31.60;;;8.00;99.90;;;;;;5056851;28;20462;-62
2021/12/24 07:27:38;;;;;;;43.80;28.93;;;7.90;99.90;;;;;;5056359;28;20458;-62
2021/12/24 07:30:09;;;;;;;47.93;30.13;;;8.00;99.90;;;;;;5054507;28;20516;-62
2021/12/24 07:32:36;;;;;;;47.03;29.57;;;8.00;99.90;;;;;;5036303;28;20463;-60
2021/12/24 07:35:05;;;;;;;41.70;28.63;;;8.00;99.90;;;;;;5053446;28;20466;-61
2021/12/24 07:37:32;;;;;;;44.63;29.17;;;8.00;99.90;;;;;;5053479;28;20450;-62
2021/12/24 07:40:03;;;;;;;44.07;30.23;;;8.00;99.90;;;;;;5054185;28;20460;-62
2021/12/24 07:42:30;;;;;;;43.47;30.80;;;8.00;99.90;;;;;;5054956;28;20459;-61
2021/12/24 07:44:58;;;;;;;41.93;28.80;;;8.00;99.90;;;;;;5052511;28;20458;-61
2021/12/24 07:47:32;;;;;;;46.23;29.53;;;8.00;99.90;;;;;;5052904;28;20494;-62
2021/12/24 07:50:01;;;;;;;50.93;31.50;;;8.00;99.90;;;;;;5053978;28;20672;-62
2021/12/24 07:52:31;;;;;;;49.17;31.00;;;8.00;99.90;;;;;;5058872;28;20469;-62
2021/12/24 07:55:01;;;;;;;49.80;29.33;;;8.00;99.90;;;;;;5053351;28;20505;-61
2021/12/24 07:57:28;;;;;;;47.07;28.63;;;8.00;99.90;;;;;;5048640;28;20528;-62
2021/12/24 07:59:58;;;;;;;49.80;30.87;;;8.00;99.90;;;;;;5055238;28;20584;-62
2021/12/24 08:02:27;;;;;;;41.60;28.83;;;8.00;99.90;;;;;;5058596;28;20550;-62
2021/12/24 08:04:54;;;;;;;44.30;29.57;;;8.00;99.90;;;;;;5054737;28;20522;-62
2021/12/24 08:07:21;;;;;;;40.77;27.40;;;8.00;99.90;;;;;;5057603;28;20927;-62
2021/12/24 08:09:51;;;;;;;53.87;28.50;;;8.00;99.90;;;;;;5059300;28;20465;-61
2021/12/24 08:12:21;;;;;;;48.73;29.13;;;8.00;99.90;;;;;;5054592;28;20466;-62
2021/12/24 08:14:48;;;;;;;45.27;27.40;;;8.00;99.90;;;;;;5059409;28;20458;-62
2021/12/24 08:17:16;;;;;;;56.57;29.17;;;8.00;99.90;;;;;;5058290;28;20886;-62
2021/12/24 08:19:43;;;;;;;45.77;27.90;;;8.00;99.90;;;;;;5059736;28;20466;-62
2021/12/24 08:22:11;;;;;;;44.80;27.67;;;8.10;99.90;;;;;;5056255;28;20473;-62
2021/12/24 08:24:39;;;;;;;39.63;28.97;;;8.00;99.90;;;;;;5057702;28;20462;-61
2021/12/24 08:27:12;;;;;;;37.33;27.30;;;8.10;99.90;;;;;;5056160;28;21046;-62
2021/12/24 08:29:39;;;;;;;46.17;28.03;;;8.10;99.90;;;;;;5059358;28;20812;-60
2021/12/24 08:32:07;;;;;;;45.50;27.60;;;8.00;99.90;;;;;;5051900;28;20560;-62
2021/12/24 08:34:34;;;;;;;46.30;27.70;;;8.00;99.90;;;;;;5039303;28;20529;-62
2021/12/24 08:37:03;;;;;;;36.80;26.43;;;8.10;99.90;;;;;;5044656;28;20466;-61
2021/12/24 08:39:31;;;;;;;45.23;28.13;;;8.10;99.90;;;;;;5058164;28;20462;-60
2021/12/24 08:41:59;;;;;;;43.43;27.00;;;8.10;99.90;;;;;;5059002;28;20458;-59
2021/12/24 08:44:31;;;;;;;45.00;27.80;;;8.10;99.90;;;;;;5058126;28;20911;-62
2021/12/24 08:47:01;;;;;;;46.20;28.60;;;8.10;99.90;;;;;;5058927;28;20496;-58
2021/12/24 08:49:31;;;;;;;41.40;28.67;;;8.10;99.90;;;;;;5058243;28;20474;-61
2021/12/24 08:51:59;;;;;;;40.20;29.87;;;8.10;99.90;;;;;;5057890;28;20462;-60
2021/12/24 08:54:27;;;;;;;47.60;30.40;;;8.00;99.90;;;;;;5057552;28;20532;-60
2021/12/24 08:56:55;;;;;;;36.70;27.13;;;8.00;99.90;;;;;;5057290;28;20466;-61
2021/12/24 08:59:23;;;;;;;41.83;28.73;;;8.00;99.90;;;;;;5058810;28;20513;-61
2021/12/24 09:01:58;;;;;;;41.03;28.07;;;7.90;99.90;;;;;;5067494;28;20503;-61
2021/12/24 09:04:25;;;;;;;49.17;30.80;;;8.00;99.90;;;;;;5077741;28;20548;-61
2021/12/24 09:06:52;;;;;;;43.50;28.37;;;8.00;99.90;;;;;;5061380;28;20503;-62
2021/12/24 09:09:19;;;;;;;58.47;31.70;;;8.00;99.90;;;;;;5075328;28;20458;-62
2021/12/24 09:11:47;;;;;;;48.30;29.07;;;8.00;99.90;;;;;;5049192;28;20514;-61
2021/12/24 09:14:19;;;;;;;50.33;28.97;;;8.00;99.90;;;;;;5038761;28;20467;-62
2021/12/24 09:16:52;;;;;;;49.53;30.63;;;8.00;99.90;;;;;;5046495;28;20517;-61
2021/12/24 09:19:24;;;;;;;42.43;28.27;;;8.00;99.90;;;;;;5058919;28;20462;-62
2021/12/24 09:21:54;;;;;;;42.87;29.37;;;8.00;99.90;;;;;;5071875;28;20890;-61
2021/12/24 09:24:23;;;;;;;45.53;29.90;;;8.00;99.90;;;;;;5077131;28;20955;-61
2021/12/24 09:26:54;;;;;;;50.67;29.57;;;8.00;99.90;;;;;;5073459;28;20574;-62
2021/12/24 09:29:27;;;;;;;41.00;28.47;;;8.00;99.90;;;;;;5057793;28;20545;-61
2021/12/24 09:31:55;;;;;;;42.17;28.63;;;8.00;99.90;;;;;;5059163;28;20458;-61
2021/12/24 09:34:24;;;;;;;34.33;27.40;;;8.00;99.90;;;;;;5057340;28;20458;-61
2021/12/24 09:36:51;;;;;;;40.57;27.13;;;8.00;99.90;;;;;;5073137;28;20457;-61
2021/12/24 09:39:18;;;;;;;45.07;26.67;;;8.00;99.90;;;;;;5076734;28;20468;-61
2021/12/24 09:41:46;;;;;;;52.23;28.30;;;7.90;99.90;;;;;;5038633;28;20552;-61
2021/12/24 09:44:19;;;;;;;42.73;25.50;;;7.90;99.90;;;;;;5038019;28;20513;-60
2021/12/24 09:46:46;;;;;;;41.03;24.93;;;7.90;99.90;;;;;;5056594;28;20814;-61
2021/12/24 09:49:15;;;;;;;44.13;26.00;;;8.00;99.90;;;;;;5057675;28;20458;-61
2021/12/24 09:51:48;;;;;;;44.77;26.73;;;8.00;99.90;;;;;;5057480;28;20470;-61
2021/12/24 09:54:18;;;;;;;42.33;24.60;;;8.00;99.90;;;;;;5073062;28;20466;-61
2021/12/24 09:56:46;;;;;;;37.53;24.47;;;8.00;99.90;;;;;;5076817;28;20511;-61
2021/12/24 09:59:13;;;;;;;40.43;26.43;;;8.00;99.90;;;;;;5038028;28;20756;-57
2021/12/24 10:01:43;;;;;;;39.43;22.97;;;8.00;99.90;;;;;;5055624;28;20519;-59
2021/12/24 10:04:12;;;;;;;48.80;23.93;;;8.00;99.90;;;;;;5059305;28;20792;-56
2021/12/24 10:06:48;;;;;;;39.13;22.80;;;8.00;99.90;;;;;;5055260;28;20498;-58
2021/12/24 10:09:17;;;;;;;40.00;24.13;;;8.10;99.90;;;;;;5051699;28;20508;-60
2021/12/24 10:11:49;;;;;;;35.50;20.20;;;8.10;99.90;;;;;;5050348;28;20838;-60
2021/12/24 10:14:21;;;;;;;35.83;20.60;;;8.10;99.90;;;;;;5055336;28;20456;-56
2021/12/24 10:16:50;;;;;;;40.23;22.80;;;8.20;99.90;;;;;;5052907;28;20461;-60
2021/12/24 10:19:19;;;;;;;36.90;22.47;;;8.20;99.90;;;;;;5057692;28;20465;-60
2021/12/24 10:21:59;;;;;;;25.97;19.63;;;8.30;99.90;;;;;;5051107;28;20474;-60
2021/12/24 10:24:30;;;;;;;27.33;19.77;;;8.30;99.90;;;;;;5054772;28;20455;-60
2021/12/24 10:26:59;;;;;;;41.17;21.93;;;8.20;99.90;;;;;;5048399;28;20544;-59
2021/12/24 10:29:33;;;;;;;32.03;20.40;;;8.30;99.90;;;;;;5043409;28;20493;-59
2021/12/24 10:32:09;;;;;;;34.27;19.87;;;8.30;99.90;;;;;;5057119;28;20465;-60
2021/12/24 10:34:36;;;;;;;27.33;19.13;;;8.40;99.90;;;;;;5037157;28;20819;-61
2021/12/24 10:37:14;;;;;;;30.87;19.63;;;8.40;99.90;;;;;;5047983;28;20465;-61
2021/12/24 10:39:49;;;;;;;29.10;18.60;;;8.30;99.90;;;;;;5056350;28;20496;-60
2021/12/24 10:42:22;;;;;;;30.27;19.43;;;8.30;99.90;;;;;;5048015;28;20477;-61
2021/12/24 10:44:51;;;;;;;27.23;19.60;;;8.30;99.90;;;;;;5075406;28;20462;-60
2021/12/24 10:47:22;;;;;;;39.83;19.33;;;8.30;99.90;;;;;;5061983;28;20494;-60
2021/12/24 10:55:45;;;;;;;33.57;19.43;;;8.30;99.90;;;;;;5037218;28;20483;-61
2021/12/24 10:58:16;;;;;;;29.50;18.63;;;8.30;99.90;;;;;;5043475;28;20462;-62
2021/12/24 11:00:48;;;;;;;36.40;18.23;;;8.30;99.90;;;;;;5056365;28;20462;-62
2021/12/24 11:03:19;;;;;;;27.57;16.43;;;8.30;99.90;;;;;;5055660;28;20462;-62
2021/12/24 11:05:47;;;;;;;23.10;15.37;;;8.30;99.90;;;;;;5056548;28;20802;-62
2021/12/24 11:08:19;;;;;;;26.80;15.40;;;8.30;99.90;;;;;;5059266;28;20488;-62
2021/12/24 11:10:50;;;;;;;31.43;16.30;;;8.30;99.90;;;;;;5075528;28;20473;-63
2021/12/24 11:13:28;;;;;;;21.60;15.30;;;8.30;99.90;;;;;;5056971;28;20458;-62
2021/12/24 11:15:56;;;;;;;27.83;17.50;;;8.30;99.90;;;;;;5072077;28;20461;-62
2021/12/24 11:18:35;;;;;;;24.37;15.33;;;8.30;99.90;;;;;;5064498;28;20458;-62
2021/12/24 11:21:06;;;;;;;29.93;16.83;;;8.30;99.90;;;;;;5056837;28;20485;-61
2021/12/24 11:23:39;;;;;;;29.60;17.70;;;8.30;99.90;;;;;;5060091;28;20815;-62
2021/12/24 11:26:13;;;;;;;28.47;16.63;;;8.20;99.90;;;;;;5073530;28;20759;-62
2021/12/24 11:28:41;;;;;;;26.60;16.70;;;8.20;99.90;;;;;;5080492;28;20545;-62
2021/12/24 11:31:11;;;;;;;28.30;17.90;;;8.20;99.90;;;;;;5080398;28;20461;-62
2021/12/24 11:33:42;;;;;;;28.90;18.40;;;8.10;99.90;;;;;;5080777;28;20518;-62
2021/12/24 11:36:11;;;;;;;28.50;16.60;;;8.10;99.90;;;;;;5069417;28;20553;-62
2021/12/24 11:38:39;;;;;;;28.60;19.10;;;8.00;99.90;;;;;;5060677;28;20458;-62
2021/12/24 11:41:10;;;;;;;29.70;19.33;;;8.10;99.90;;;;;;5060525;28;20462;-61
2021/12/24 11:43:40;;;;;;;33.13;19.23;;;8.00;99.90;;;;;;5060678;28;20811;-60
2021/12/24 11:46:09;;;;;;;30.47;20.73;;;8.00;99.90;;;;;;5066283;28;20461;-60
2021/12/24 11:48:37;;;;;;;32.90;18.00;;;8.10;99.90;;;;;;5080555;28;20948;-59
2021/12/24 11:51:07;;;;;;;30.37;16.80;;;8.00;99.90;;;;;;5079865;28;20514;-61
2021/12/24 11:53:35;;;;;;;35.67;20.80;;;8.00;99.90;;;;;;5080796;28;20890;-62
2021/12/24 11:56:04;;;;;;;32.60;18.07;;;8.00;99.90;;;;;;5073308;28;20466;-61
2021/12/24 11:58:43;;;;;;;29.63;19.07;;;8.00;99.90;;;;;;5080530;28;20480;-61
2021/12/24 12:01:14;;;;;;;28.83;19.10;;;8.00;99.90;;;;;;5071208;28;20511;-61
2021/12/24 12:03:46;;;;;;;30.57;19.90;;;8.10;99.90;;;;;;5060480;28;20513;-61
2021/12/24 12:06:33;;;;;;;29.97;18.33;;;8.00;99.90;;;;;;5058841;28;20490;-61
2021/12/24 12:09:01;;;;;;;30.23;20.00;;;8.00;99.90;;;;;;5039973;28;20954;-59
2021/12/24 12:11:30;;;;;;;29.33;20.30;;;8.00;99.90;;;;;;5041106;28;20504;-61
2021/12/24 12:14:02;;;;;;;32.33;18.50;;;8.00;99.90;;;;;;5040071;28;20471;-59
2021/12/24 12:16:48;;;;;;;31.97;20.10;;;8.00;99.90;;;;;;5039823;28;20970;-61
2021/12/24 12:19:23;;;;;;;32.93;19.43;;;7.90;99.90;;;;;;5059569;28;20553;-61
2021/12/24 12:22:17;;;;;;;27.63;18.60;;;8.00;99.90;;;;;;5058330;28;20922;-61
2021/12/24 12:27:32;;;;;;;32.97;20.30;;;8.00;99.90;;;;;;5076446;28;21020;-62
2021/12/24 12:30:27;;;;;;;32.23;19.60;;;8.00;99.90;;;;;;5079744;28;20461;-59
2021/12/24 12:33:03;;;;;;;35.07;19.97;;;8.00;99.90;;;;;;5079443;28;20886;-61
2021/12/24 12:35:35;;;;;;;30.13;17.40;;;8.00;99.90;;;;;;5079062;28;20832;-62
2021/12/24 12:38:28;;;;;;;26.90;18.00;;;8.00;99.90;;;;;;5059529;28;20537;-61
2021/12/24 12:41:15;;;;;;;33.17;18.87;;;8.00;99.90;;;;;;5058764;28;20466;-62
2021/12/24 12:43:44;;;;;;;41.43;18.73;;;8.00;99.90;;;;;;5058355;28;20809;-62
2021/12/24 12:46:20;;;;;;;36.13;19.10;;;8.00;99.90;;;;;;5057709;28;20535;-63
2021/12/24 12:48:53;;;;;;;29.27;20.50;;;8.00;99.90;;;;;;5038883;28;20494;-62
2021/12/24 12:51:46;;;;;;;29.80;20.27;;;8.00;99.90;;;;;;5045745;28;20466;-63
2021/12/24 12:54:37;;;;;;;33.53;21.20;;;8.00;99.90;;;;;;5059213;28;20883;-62
2021/12/24 12:57:29;;;;;;;37.10;21.50;;;8.10;99.90;;;;;;5061453;28;20462;-61
2021/12/24 13:00:20;;;;;;;33.07;18.87;;;8.00;99.90;;;;;;5073174;28;20465;-61
2021/12/24 13:03:11;;;;;;;32.60;23.03;;;8.10;99.90;;;;;;5077948;28;20885;-62
2021/12/24 13:05:54;;;;;;;29.33;20.40;;;8.10;99.90;;;;;;5078587;28;20485;-61
2021/12/24 13:08:24;;;;;;;33.00;20.17;;;8.10;99.90;;;;;;5065578;28;20490;-61
2021/12/24 13:11:01;;;;;;;31.80;20.67;;;8.10;99.90;;;;;;5056919;28;20465;-61
2021/12/24 13:13:29;;;;;;;34.17;20.50;;;8.10;99.90;;;;;;5071496;28;20464;-61
2021/12/24 13:15:56;;;;;;;25.40;18.43;;;8.10;99.90;;;;;;5078996;28;20460;-62
2021/12/24 13:18:30;;;;;;;30.60;19.40;;;8.20;99.90;;;;;;5071742;28;20922;-63
2021/12/24 13:23:51;;;;;;;29.13;19.80;;;8.20;99.90;;;;;;5058242;28;20750;-62
2021/12/24 13:26:21;;;;;;;30.10;20.40;;;8.20;99.90;;;;;;5058317;28;20466;-62
2021/12/24 13:28:59;;;;;;;33.57;20.63;;;8.20;99.90;;;;;;5063533;28;20508;-62
2021/12/24 13:31:30;;;;;;;30.03;18.90;;;8.20;99.90;;;;;;5078087;28;20519;-62
2021/12/24 13:33:59;;;;;;;32.63;19.67;;;8.20;99.90;;;;;;5064726;28;20899;-61
2021/12/24 13:36:30;;;;;;;32.03;20.33;;;8.20;99.90;;;;;;5049263;28;20972;-62
2021/12/24 13:39:11;;;;;;;29.63;20.43;;;8.20;99.90;;;;;;5057858;28;20565;-60
2021/12/24 13:41:45;;;;;;;31.00;20.67;;;8.20;99.90;;;;;;5038861;28;20455;-61
2021/12/24 13:44:24;;;;;;;28.17;20.83;;;8.30;99.90;;;;;;5037095;28;20514;-61
2021/12/24 13:47:09;;;;;;;30.80;18.33;;;8.10;99.90;;;;;;5038068;28;20467;-61
2021/12/24 13:50:00;;;;;;;29.40;17.03;;;8.10;99.90;;;;;;5053443;28;20899;-61
2021/12/24 13:55:27;;;;;;;25.50;17.00;;;8.10;99.90;;;;;;5056524;28;20454;-61
2021/12/24 13:57:56;;;;;;;29.20;19.93;;;8.10;99.90;;;;;;5057853;28;20459;-61
2021/12/24 14:00:24;;;;;;;39.07;18.57;;;8.10;99.90;;;;;;5062901;28;20445;-60
2021/12/24 14:02:56;;;;;;;25.73;16.90;;;8.20;99.90;;;;;;5057193;28;20470;-61
2021/12/24 14:05:25;;;;;;;26.00;16.53;;;8.10;99.90;;;;;;5057247;28;20494;-62
2021/12/24 14:08:08;;;;;;;34.87;18.03;;;8.10;99.90;;;;;;5057710;28;20786;-62
2021/12/24 14:10:36;;;;;;;23.57;17.73;;;8.10;99.90;;;;;;5057131;28;20506;-62
2021/12/24 14:13:10;;;;;;;27.30;17.87;;;8.20;99.90;;;;;;5047320;28;20824;-61